Time;durP1;ratioP1;P1;durP2;ratioP2;P2;SDS_P1;SDS_P2;PMS_P1;PMS_P2;Temp;Humidity;BMP_temperature;BMP_pressure;BME280_temperature;BME280_humidity;BME280_pressure;Samples;Min_cycle;Max_cycle;Signal;HPM_P1;HPM_P2
2021/08/02 00:01:32;;;;;;;7.83;3.42;;;;;;;18.74;90.40;93903.72;1823645;78;21135;-55
2021/08/02 00:04:05;;;;;;;4.17;3.05;;;;;;;18.68;90.29;93911.38;1823441;78;20993;-57
2021/08/02 00:06:51;;;;;;;5.40;3.20;;;;;;;18.59;89.98;93915.25;1823285;78;21005;-58
2021/08/02 00:09:26;;;;;;;5.35;3.10;;;;;;;18.49;90.25;93910.52;1823578;78;20958;-56
2021/08/02 00:12:00;;;;;;;5.28;3.17;;;;;;;18.42;90.85;93897.91;1823354;78;20942;-57
2021/08/02 00:14:29;;;;;;;5.55;3.30;;;;;;;18.43;91.51;93899.41;1791330;78;21022;-56
2021/08/02 00:16:57;;;;;;;6.45;3.65;;;;;;;18.45;91.58;93902.44;1787197;80;20934;-57
2021/08/02 00:19:25;;;;;;;5.08;3.60;;;;;;;18.45;91.60;93894.08;1831841;77;21030;-57
2021/08/02 00:21:52;;;;;;;6.62;3.60;;;;;;;18.49;91.52;93895.20;1832117;78;20966;-57
2021/08/02 00:24:21;;;;;;;7.20;3.20;;;;;;;18.51;91.36;93896.20;1831982;77;21493;-58
2021/08/02 00:26:49;;;;;;;5.17;3.00;;;;;;;18.52;90.96;93887.97;1792358;80;21083;-57
2021/08/02 00:29:17;;;;;;;4.05;3.05;;;;;;;18.51;90.52;93882.28;1792409;79;21065;-57
2021/08/02 00:31:44;;;;;;;7.35;3.27;;;;;;;18.50;90.24;93884.17;1792490;79;21077;-57
2021/08/02 00:34:13;;;;;;;7.87;3.10;;;;;;;18.40;90.09;93880.96;1792242;80;20987;-56
2021/08/02 00:37:03;;;;;;;6.55;3.22;;;;;;;18.33;90.35;93875.20;1792278;80;21486;-56
2021/08/02 00:39:56;;;;;;;4.45;3.00;;;;;;;18.28;90.59;93876.73;1792250;79;21862;-56
2021/08/02 00:42:53;;;;;;;4.83;3.03;;;;;;;18.22;90.34;93875.23;1767202;81;20946;-55
2021/08/02 00:45:23;;;;;;;6.15;3.58;;;;;;;18.12;90.57;93883.03;1703410;84;21009;-57
2021/08/02 00:47:59;;;;;;;4.45;3.52;;;;;;;18.06;91.22;93887.89;1753589;81;21006;-57
2021/08/02 00:50:30;;;;;;;5.25;3.58;;;;;;;18.03;91.83;93877.78;1763995;81;20977;-57
2021/08/02 00:53:10;;;;;;;7.85;3.98;;;;;;;18.01;92.08;93872.72;1766856;81;21104;-58
2021/08/02 00:55:46;;;;;;;5.03;3.17;;;;;;;18.02;92.15;93872.10;1769446;79;21091;-58
2021/08/02 00:58:17;;;;;;;8.23;3.40;;;;;;;18.06;91.95;93873.34;1765747;81;21489;-58
2021/08/02 01:00:45;;;;;;;6.53;3.42;;;;;;;18.10;91.53;93865.47;1777337;80;20942;-57
2021/08/02 01:03:13;;;;;;;10.20;3.55;;;;;;;18.13;90.99;93876.19;1777578;80;20942;-57
2021/08/02 01:05:43;;;;;;;4.10;3.00;;;;;;;18.08;90.85;93865.23;1761049;81;21128;-57
2021/08/02 01:08:15;;;;;;;7.53;3.20;;;;;;;18.03;90.95;93873.61;1777165;80;21478;-56
2021/08/02 01:10:49;;;;;;;3.58;2.83;;;;;;;18.01;91.15;93870.59;1761179;81;20922;-57
2021/08/02 01:13:17;;;;;;;6.50;3.45;;;;;;;18.01;91.34;93862.23;1777301;80;21431;-58
2021/08/02 01:15:47;;;;;;;12.35;3.87;;;;;;;17.99;91.21;93871.75;1777487;79;20947;-59
2021/08/02 01:18:19;;;;;;;6.83;3.65;;;;;;;17.98;91.10;93871.63;1761046;81;21087;-57
2021/08/02 01:20:49;;;;;;;9.15;3.70;;;;;;;17.94;91.00;93865.56;1749075;80;21431;-57
2021/08/02 01:23:18;;;;;;;5.35;3.15;;;;;;;17.94;91.45;93868.34;1733279;81;21413;-57
2021/08/02 01:25:51;;;;;;;4.90;3.37;;;;;;;17.95;91.67;93864.28;1761098;81;21413;-57
2021/08/02 01:28:29;;;;;;;6.25;3.45;;;;;;;17.94;91.28;93865.56;1761395;80;21421;-56
2021/08/02 01:31:00;;;;;;;7.08;3.50;;;;;;;17.93;91.36;93862.66;1761146;81;21106;-56
2021/08/02 01:33:32;;;;;;;9.60;3.85;;;;;;;17.91;91.55;93863.81;1760222;81;21068;-57
2021/08/02 01:36:08;;;;;;;5.42;3.55;;;;;;;17.93;91.83;93881.52;1761215;81;21013;-57
2021/08/02 01:38:36;;;;;;;4.58;3.12;;;;;;;17.96;91.65;93863.01;1787916;78;20973;-57
2021/08/02 01:41:06;;;;;;;7.80;2.98;;;;;;;17.93;91.67;93858.48;1789846;79;20952;-56
2021/08/02 01:43:36;;;;;;;8.68;3.80;;;;;;;17.90;91.96;93857.50;1791006;80;20921;-57
2021/08/02 01:46:18;;;;;;;6.30;3.37;;;;;;;17.85;92.08;93858.92;1790514;80;20941;-56
2021/08/02 01:49:08;;;;;;;6.40;4.08;;;;;;;17.83;92.56;93857.30;1790699;80;20971;-57
2021/08/02 01:51:42;;;;;;;6.92;3.83;;;;;;;17.85;93.00;93852.70;1790554;80;20959;-56
2021/08/02 01:54:15;;;;;;;5.65;3.52;;;;;;;17.85;92.98;93857.53;1764536;80;21063;-57
2021/08/02 01:57:08;;;;;;;7.70;4.08;;;;;;;17.84;93.15;93860.20;1790387;80;21152;-57
2021/08/02 01:59:58;;;;;;;13.45;4.53;;;;;;;17.86;93.27;93859.04;1774274;80;20987;-55
2021/08/02 02:02:26;;;;;;;10.85;4.60;;;;;;;17.90;93.24;93863.69;1790696;80;21003;-56
2021/08/02 02:05:12;;;;;;;8.10;3.62;;;;;;;17.93;92.95;93866.83;1790678;80;21051;-56
2021/08/02 02:07:51;;;;;;;5.12;3.65;;;;;;;17.94;92.63;93862.77;1787726;80;21047;-55
2021/08/02 02:10:22;;;;;;;9.45;3.45;;;;;;;17.90;91.89;93862.30;1787300;80;21152;-55
2021/08/02 02:12:49;;;;;;;4.97;3.52;;;;;;;17.87;92.01;93854.98;1764191;80;21003;-56
2021/08/02 02:15:18;;;;;;;8.53;3.75;;;;;;;17.84;92.11;93869.28;1790389;80;20944;-57
2021/08/02 02:17:48;;;;;;;8.08;4.00;;;;;;;17.81;92.58;93862.62;1790531;80;21419;-57
2021/08/02 02:20:15;;;;;;;9.35;4.47;;;;;;;17.85;92.98;93861.05;1790552;80;20975;-56
2021/08/02 02:22:42;;;;;;;7.47;4.78;;;;;;;17.90;92.81;93865.08;1755444;80;21116;-56
2021/08/02 02:25:11;;;;;;;9.40;5.20;;;;;;;17.92;92.62;93869.49;1788344;80;20982;-57
2021/08/02 02:27:39;;;;;;;11.73;4.90;;;;;;;17.95;92.63;93863.66;1774241;81;21074;-56
2021/08/02 02:30:08;;;;;;;11.73;4.95;;;;;;;17.99;92.51;93859.96;1762417;80;20974;-57
2021/08/02 02:32:36;;;;;;;14.25;5.37;;;;;;;18.03;92.62;93847.91;1788697;80;20997;-56
2021/08/02 02:35:06;;;;;;;7.05;4.30;;;;;;;18.07;92.69;93847.02;1774187;80;21108;-56
2021/08/02 02:37:33;;;;;;;6.50;4.20;;;;;;;18.07;92.49;93845.62;1788157;80;20902;-56
2021/08/02 02:40:05;;;;;;;10.93;4.97;;;;;;;18.06;92.46;93854.48;1757602;79;20946;-56
2021/08/02 02:42:31;;;;;;;11.88;5.45;;;;;;;18.06;92.59;93841.33;1798530;78;20984;-56
2021/08/02 02:44:58;;;;;;;10.08;5.00;;;;;;;18.07;92.73;93839.29;1823573;78;21382;-57
2021/08/02 02:47:25;;;;;;;8.43;5.35;;;;;;;18.08;92.60;93832.45;1823139;78;21128;-56
2021/08/02 02:49:55;;;;;;;12.45;5.78;;;;;;;18.05;92.52;93832.09;1823226;78;21009;-57
2021/08/02 02:52:23;;;;;;;6.83;4.72;;;;;;;18.04;92.95;93836.16;1823441;78;20962;-56
2021/08/02 02:54:51;;;;;;;8.13;4.83;;;;;;;18.11;93.31;93838.37;1822841;78;21798;-57
2021/08/02 02:57:18;;;;;;;5.92;4.72;;;;;;;18.18;93.04;93840.61;1772349;78;21418;-57
2021/08/02 02:59:45;;;;;;;8.45;4.67;;;;;;;18.20;92.43;93843.75;1822700;78;21077;-57
2021/08/02 03:02:13;;;;;;;5.78;4.28;;;;;;;18.13;92.26;93833.16;1822501;78;21022;-56
2021/08/02 03:04:45;;;;;;;9.13;4.42;;;;;;;18.06;92.23;93836.39;1801842;78;21019;-56
2021/08/02 03:07:13;;;;;;;8.55;4.10;;;;;;;17.97;92.42;93834.67;1789888;80;21567;-57
2021/08/02 03:09:42;;;;;;;6.12;4.42;;;;;;;17.92;92.85;93838.88;1790703;79;21054;-57
2021/08/02 03:12:11;;;;;;;10.15;4.67;;;;;;;17.97;93.52;93840.89;1790191;80;21131;-57
2021/08/02 03:14:37;;;;;;;7.20;5.00;;;;;;;18.01;93.36;93842.76;1738327;80;21035;-57
2021/08/02 03:17:08;;;;;;;8.80;5.33;;;;;;;18.02;93.66;93853.36;1790070;80;20960;-57
2021/08/02 03:19:36;;;;;;;6.55;4.00;;;;;;;18.04;93.12;93841.06;1790090;80;21023;-56
2021/08/02 03:22:09;;;;;;;12.82;4.28;;;;;;;18.08;93.13;93849.15;1790402;80;20952;-56
2021/08/02 03:24:43;;;;;;;7.17;4.53;;;;;;;18.06;92.95;93857.27;1790170;80;21384;-57
2021/08/02 03:27:31;;;;;;;;;;;;;;;18.02;93.03;93849.84;1791784;80;21012;-59
2021/08/02 03:30:02;;;;;;;8.40;4.55;;;;;;;17.97;92.99;93845.07;1790402;80;20199;-56
2021/08/02 03:32:28;;;;;;;7.75;4.67;;;;;;;17.93;92.98;93847.34;1790255;80;21421;-56
2021/08/02 03:34:58;;;;;;;7.85;4.10;;;;;;;17.93;92.82;93840.39;1789864;79;21039;-56
2021/08/02 03:37:25;;;;;;;5.45;4.95;;;;;;;17.93;92.99;93840.39;1790076;80;21124;-56
2021/08/02 03:39:54;;;;;;;5.97;4.15;;;;;;;17.94;93.05;93843.29;1790216;80;21539;-56
2021/08/02 03:42:22;;;;;;;6.47;4.75;;;;;;;17.95;92.94;93852.53;1763993;80;20998;-55
2021/08/02 03:44:49;;;;;;;11.28;5.35;;;;;;;17.94;92.88;93855.81;1790316;80;21031;-56
2021/08/02 03:49:01;;;;;;;7.42;4.90;;;;;;;18.03;92.88;93843.73;1883855;75;21873;-56
2021/08/02 03:51:50;;;;;;;10.05;5.10;;;;;;;17.96;92.92;93850.48;1860370;77;21469;-58
2021/08/02 03:54:17;;;;;;;6.67;5.37;;;;;;;17.96;93.42;93844.92;1860288;77;21114;-56
2021/08/02 03:56:44;;;;;;;7.67;5.10;;;;;;;18.04;93.45;93852.86;1860255;77;20901;-55
2021/08/02 03:59:12;;;;;;;8.73;5.05;;;;;;;18.06;93.07;93847.52;1860252;77;21414;-58
2021/08/02 04:01:40;;;;;;;6.97;4.47;;;;;;;18.02;93.15;93853.36;1860561;77;20933;-56
2021/08/02 04:04:07;;;;;;;7.20;4.53;;;;;;;18.03;93.01;93864.61;1860168;77;20925;-56
2021/08/02 04:06:35;;;;;;;4.70;4.25;;;;;;;18.02;92.84;93870.71;1860487;77;21125;-56
2021/08/02 04:09:05;;;;;;;12.07;5.20;;;;;;;17.98;92.77;93868.84;1860512;77;20857;-56
2021/08/02 04:11:32;;;;;;;7.10;5.05;;;;;;;18.05;93.44;93871.80;1860357;77;20904;-56
2021/08/02 04:13:59;;;;;;;7.12;4.05;;;;;;;18.10;93.01;93882.79;1860501;77;20965;-56
2021/08/02 04:16:26;;;;;;;7.37;3.75;;;;;;;18.13;92.93;93893.01;1860393;77;20953;-56
2021/08/02 04:18:52;;;;;;;6.60;4.53;;;;;;;18.13;92.78;93891.50;1860304;77;21111;-56
2021/08/02 04:21:19;;;;;;;5.78;3.90;;;;;;;18.13;92.69;93901.24;1860486;77;21410;-55
2021/08/02 04:23:46;;;;;;;5.42;4.80;;;;;;;18.10;92.82;93897.48;1860634;77;20956;-55
2021/08/02 04:26:13;;;;;;;5.97;4.30;;;;;;;18.13;92.90;93905.41;1860542;76;21452;-56
2021/08/02 04:28:40;;;;;;;11.25;5.97;;;;;;;18.13;92.97;93904.14;1859040;76;20934;-58
2021/08/02 04:31:07;;;;;;;6.05;4.37;;;;;;;18.18;92.94;93904.77;1767631;81;21230;-57
2021/08/02 04:33:35;;;;;;;5.17;4.67;;;;;;;18.27;92.99;93918.39;1799743;79;21008;-55
2021/08/02 04:36:05;;;;;;;6.70;4.45;;;;;;;18.35;92.58;93923.55;1799712;79;21036;-55
2021/08/02 04:38:32;;;;;;;6.58;4.50;;;;;;;18.44;92.11;93920.42;1799774;79;21431;-56
2021/08/02 04:40:59;;;;;;;12.80;4.75;;;;;;;18.50;91.65;93932.27;1820472;78;20987;-56
2021/08/02 04:43:26;;;;;;;11.73;4.62;;;;;;;18.54;90.79;93928.59;1836779;78;21186;-57
2021/08/02 04:49:26;;;;;;;14.98;4.72;;;;;;;18.53;90.24;93939.63;1766960;79;25779;-59
2021/08/02 04:51:54;;;;;;;7.22;5.45;;;;;;;18.49;90.17;93934.20;1730716;81;21014;-58
2021/08/02 04:54:23;;;;;;;10.13;5.12;;;;;;;18.40;90.14;93927.54;1727158;81;20999;-57
2021/08/02 04:56:50;;;;;;;5.58;4.53;;;;;;;18.33;90.37;93935.84;1734360;82;21017;-58
2021/08/02 04:59:17;;;;;;;6.05;4.50;;;;;;;18.27;90.38;93935.09;1734826;81;21482;-59
2021/08/02 05:01:44;;;;;;;4.60;3.92;;;;;;;18.18;90.74;93917.92;1701959;82;21532;-58
2021/08/02 05:04:10;;;;;;;7.37;5.87;;;;;;;18.18;91.29;93927.04;1688906;83;21503;-59
2021/08/02 05:06:37;;;;;;;9.65;5.12;;;;;;;18.15;91.43;93929.34;1699577;83;21089;-57
2021/08/02 05:09:05;;;;;;;6.95;4.37;;;;;;;18.18;91.83;93924.25;1694958;84;21059;-59
2021/08/02 05:11:32;;;;;;;10.48;4.97;;;;;;;18.21;91.68;93923.84;1689436;81;22087;-56
2021/08/02 05:14:00;;;;;;;6.47;4.35;;;;;;;18.21;91.68;93920.44;1716135;82;21364;-59
2021/08/02 05:16:27;;;;;;;7.70;4.85;;;;;;;18.23;91.92;93924.08;1714234;83;21466;-58
2021/08/02 05:18:55;;;;;;;10.18;4.47;;;;;;;18.32;91.54;93934.95;1717963;82;21175;-59
2021/08/02 05:21:22;;;;;;;8.03;4.92;;;;;;;18.34;91.08;93924.81;1712980;82;21471;-58
2021/08/02 05:23:49;;;;;;;6.53;4.47;;;;;;;18.33;90.97;93918.36;1717481;82;21538;-58
2021/08/02 05:26:15;;;;;;;7.70;4.12;;;;;;;18.39;90.85;93918.44;1713103;82;21102;-59
2021/08/02 05:28:42;;;;;;;6.42;4.62;;;;;;;18.49;90.59;93923.80;1716241;82;21218;-57
2021/08/02 05:31:09;;;;;;;7.60;4.80;;;;;;;18.62;89.97;93918.39;1710178;82;21236;-57
2021/08/02 05:33:36;;;;;;;7.20;6.12;;;;;;;18.67;88.79;93923.80;1717280;82;21675;-59
2021/08/02 05:36:04;;;;;;;9.90;5.70;;;;;;;18.62;88.75;93921.17;1708252;83;21121;-59
2021/08/02 05:38:31;;;;;;;6.03;3.87;;;;;;;18.71;89.19;93911.11;1718453;82;21096;-58
2021/08/02 05:40:59;;;;;;;6.65;4.72;;;;;;;18.80;89.23;93912.81;1714744;83;21021;-59
2021/08/02 05:43:26;;;;;;;8.80;4.85;;;;;;;18.84;88.59;93916.06;1692979;82;21203;-58
2021/08/02 05:45:54;;;;;;;7.60;4.47;;;;;;;18.79;88.24;93912.04;1694860;84;21505;-58
2021/08/02 05:48:21;;;;;;;6.20;4.50;;;;;;;18.83;88.78;93905.53;1709307;83;21211;-58
2021/08/02 05:50:50;;;;;;;8.35;4.62;;;;;;;18.89;88.26;93904.10;1710928;82;21038;-58
2021/08/02 05:53:16;;;;;;;11.55;5.97;;;;;;;18.91;87.75;93901.55;1705521;82;21006;-60
2021/08/02 05:55:43;;;;;;;11.48;5.85;;;;;;;18.94;87.64;93897.09;1702590;82;21944;-55
2021/08/02 05:58:11;;;;;;;7.90;5.45;;;;;;;19.00;87.77;93898.44;1702093;82;21128;-62
2021/08/02 06:00:39;;;;;;;6.50;4.75;;;;;;;19.08;87.24;93900.12;1691588;83;20998;-58
2021/08/02 06:03:06;;;;;;;8.10;4.97;;;;;;;19.17;87.11;93897.00;1691524;82;21048;-59
2021/08/02 06:05:34;;;;;;;7.37;5.42;;;;;;;19.22;86.73;93893.39;1695753;82;21074;-59
2021/08/02 06:08:01;;;;;;;8.70;5.33;;;;;;;19.32;86.87;93896.59;1706421;82;21749;-59
2021/08/02 06:10:28;;;;;;;7.08;5.80;;;;;;;19.39;86.23;93896.02;1686137;82;21040;-59
2021/08/02 06:12:54;;;;;;;5.08;4.60;;;;;;;19.42;85.61;93897.13;1687230;83;21607;-60
2021/08/02 06:15:21;;;;;;;23.10;7.05;;;;;;;19.38;85.08;93899.44;1679912;83;21237;-61
2021/08/02 06:17:48;;;;;;;8.60;5.65;;;;;;;19.30;85.34;93898.52;1701676;82;22221;-71
2021/08/02 06:20:14;;;;;;;8.13;5.50;;;;;;;19.31;85.77;93907.00;1703862;82;21558;-59
2021/08/02 06:22:41;;;;;;;11.55;5.83;;;;;;;19.34;85.64;93908.74;1714036;81;21037;-59
2021/08/02 06:25:08;;;;;;;8.08;5.90;;;;;;;19.35;85.32;93893.52;1704799;82;21158;-60
2021/08/02 06:27:35;;;;;;;6.30;5.45;;;;;;;19.41;85.87;93899.77;1703435;81;21052;-61
2021/08/02 06:30:04;;;;;;;7.37;5.22;;;;;;;19.51;86.24;93906.52;1704140;82;21054;-58
2021/08/02 06:32:31;;;;;;;6.20;5.55;;;;;;;19.60;85.64;93904.02;1694282;81;21163;-59
2021/08/02 06:34:58;;;;;;;5.65;4.65;;;;;;;19.63;85.26;93903.73;1700230;81;21330;-58
2021/08/02 06:37:27;;;;;;;8.65;5.15;;;;;;;19.66;85.17;93908.25;1686983;82;21030;-59
2021/08/02 06:39:53;;;;;;;7.55;5.08;;;;;;;19.71;84.90;93894.13;1695926;82;21151;-59
2021/08/02 06:42:20;;;;;;;11.38;4.70;;;;;;;19.75;84.67;93894.58;1700358;82;20993;-61
2021/08/02 06:44:47;;;;;;;15.88;6.03;;;;;;;19.81;84.90;93893.22;1694824;82;22291;-61
2021/08/02 06:47:14;;;;;;;7.95;5.40;;;;;;;19.82;84.78;93896.13;1694631;82;22234;-62
2021/08/02 06:49:41;;;;;;;10.90;6.87;;;;;;;19.81;84.41;93907.18;1695017;82;21481;-57
2021/08/02 06:52:09;;;;;;;7.45;5.47;;;;;;;19.80;84.53;93908.47;1691001;83;21194;-60
2021/08/02 06:54:36;;;;;;;11.65;4.95;;;;;;;19.93;84.54;93913.38;1693310;83;21014;-61
2021/08/02 06:57:04;;;;;;;5.90;5.17;;;;;;;20.08;84.54;93911.66;1709175;82;21432;-60
2021/08/02 06:59:30;;;;;;;6.50;5.80;;;;;;;20.25;83.41;93916.38;1699792;82;21076;-60
2021/08/02 07:01:58;;;;;;;16.40;9.80;;;;;;;20.45;83.24;93917.23;1685421;82;21119;-62
2021/08/02 07:04:24;;;;;;;14.13;6.10;;;;;;;20.59;81.75;93932.77;1699337;82;21137;-59
2021/08/02 07:06:52;;;;;;;12.28;5.30;;;;;;;20.65;81.28;93922.25;1694573;82;21212;-59
2021/08/02 07:09:20;;;;;;;6.92;4.78;;;;;;;20.79;81.92;93926.61;1686554;82;21580;-61
2021/08/02 07:11:47;;;;;;;8.43;4.60;;;;;;;21.02;82.42;93924.34;1691035;81;21521;-59
2021/08/02 07:14:15;;;;;;;5.70;4.40;;;;;;;21.32;82.10;93928.27;1695405;83;21345;-63
2021/08/02 07:16:42;;;;;;;8.50;4.87;;;;;;;21.62;81.63;93935.73;1703617;82;21111;-62
2021/08/02 07:19:10;;;;;;;6.15;4.08;;;;;;;21.87;80.75;93937.05;1689688;82;21186;-61
2021/08/02 07:21:36;;;;;;;6.75;3.77;;;;;;;22.09;79.46;93942.30;1693039;82;21079;-60
2021/08/02 07:24:05;;;;;;;5.45;4.30;;;;;;;22.28;77.94;93930.96;1683802;83;21143;-59
2021/08/02 07:26:32;;;;;;;5.58;4.20;;;;;;;22.47;77.71;93932.33;1702188;83;21030;-59
2021/08/02 07:29:02;;;;;;;10.10;4.60;;;;;;;22.69;76.45;93933.87;1705510;82;21062;-63
2021/08/02 07:31:28;;;;;;;6.40;4.15;;;;;;;22.86;74.61;93931.44;1697793;82;21036;-57
2021/08/02 07:33:55;;;;;;;7.78;4.78;;;;;;;23.02;74.27;93928.22;1686126;82;21097;-62
2021/08/02 07:36:22;;;;;;;5.05;4.05;;;;;;;23.17;73.73;93934.00;1693771;83;21027;-60
2021/08/02 07:38:49;;;;;;;6.97;4.20;;;;;;;23.23;73.59;93912.81;1684823;83;21005;-61
2021/08/02 07:41:16;;;;;;;8.38;4.47;;;;;;;23.33;72.19;93923.00;1688394;83;21349;-59
2021/08/02 07:43:46;;;;;;;7.62;4.35;;;;;;;23.44;71.88;93923.36;1687828;83;21009;-61
2021/08/02 07:46:13;;;;;;;7.25;3.47;;;;;;;23.47;71.39;93927.23;1691093;83;21399;-59
2021/08/02 07:48:40;;;;;;;4.92;3.47;;;;;;;23.51;70.61;93926.23;1704933;82;22318;-62
2021/08/02 07:51:07;;;;;;;13.48;4.45;;;;;;;23.59;70.45;93932.64;1703970;82;21081;-63
2021/08/02 07:53:34;;;;;;;15.03;4.53;;;;;;;23.74;69.54;93937.62;1682014;82;21612;-60
2021/08/02 07:56:01;;;;;;;5.83;4.00;;;;;;;23.87;69.24;93939.70;1689240;83;21081;-62
2021/08/02 07:58:28;;;;;;;6.00;4.45;;;;;;;24.05;69.01;93935.88;1704512;83;21851;-62
2021/08/02 08:00:55;;;;;;;8.10;5.00;;;;;;;24.25;68.49;93932.99;1696759;82;21081;-60
2021/08/02 08:03:22;;;;;;;9.38;3.72;;;;;;;24.46;67.70;93939.91;1697080;82;21131;-61
2021/08/02 08:05:49;;;;;;;6.15;3.25;;;;;;;24.66;61.63;93936.25;1698680;83;21148;-61
2021/08/02 08:08:17;;;;;;;7.87;3.60;;;;;;;24.86;57.06;93938.17;1676039;84;21132;-73
2021/08/02 08:10:45;;;;;;;4.72;3.52;;;;;;;25.00;56.15;93942.34;1627964;85;21114;-62
2021/08/02 08:13:13;;;;;;;5.92;4.08;;;;;;;25.09;53.59;93937.59;1637616;85;21072;-65
2021/08/02 08:15:40;;;;;;;4.45;2.62;;;;;;;25.18;54.76;93942.04;1644932;85;21085;-57
2021/08/02 08:18:07;;;;;;;7.65;3.10;;;;;;;25.29;53.23;93946.55;1650505;85;21164;-63
2021/08/02 08:20:34;;;;;;;8.63;4.08;;;;;;;25.37;54.33;93948.70;1637368;84;21294;-62
2021/08/02 08:23:01;;;;;;;9.55;5.97;;;;;;;25.46;51.50;93958.75;1636336;85;21152;-69
2021/08/02 08:25:28;;;;;;;5.95;3.47;;;;;;;25.53;51.64;93955.85;1662536;85;21117;-61
2021/08/02 08:27:55;;;;;;;7.90;3.60;;;;;;;25.59;51.74;93962.04;1632615;86;21566;-62
2021/08/02 08:30:22;;;;;;;9.70;3.25;;;;;;;25.66;51.15;93955.67;1625273;86;21100;-70
2021/08/02 08:32:49;;;;;;;5.20;2.90;;;;;;;25.72;51.68;93949.94;1634377;85;22347;-63
2021/08/02 08:35:16;;;;;;;6.47;3.47;;;;;;;25.82;52.89;93957.16;1656676;85;21202;-60
2021/08/02 08:37:43;;;;;;;9.70;3.37;;;;;;;25.91;52.64;93949.56;1611110;87;21086;-58
2021/08/02 08:40:12;;;;;;;9.18;3.90;;;;;;;26.02;52.24;93956.95;1627939;86;21044;-63
2021/08/02 08:42:41;;;;;;;5.75;3.98;;;;;;;26.15;51.37;93955.34;1641508;85;21086;-61
2021/08/02 08:45:11;;;;;;;12.80;4.35;;;;;;;26.22;49.15;93959.55;1628795;85;21542;-60
2021/08/02 08:47:38;;;;;;;7.47;3.25;;;;;;;26.24;50.55;93962.55;1631318;85;21375;-61
2021/08/02 08:50:10;;;;;;;7.08;3.33;;;;;;;26.27;48.98;93974.11;1639746;86;21031;-63
2021/08/02 08:52:38;;;;;;;4.53;3.30;;;;;;;26.20;47.49;93966.42;1625779;85;21061;-63
2021/08/02 08:55:11;;;;;;;8.93;3.27;;;;;;;26.06;48.92;93965.78;1622240;86;21529;-63
2021/08/02 08:57:38;;;;;;;7.47;3.83;;;;;;;26.08;49.57;93951.22;1729955;82;21122;-58
2021/08/02 09:00:09;;;;;;;3.90;3.08;;;;;;;26.25;49.85;93964.05;1688183;82;21353;-58
2021/08/02 09:02:36;;;;;;;7.50;3.22;;;;;;;26.45;49.29;93960.91;1709220;83;21056;-62
2021/08/02 09:05:04;;;;;;;5.40;2.75;;;;;;;26.63;50.05;93958.33;1638849;83;21045;-57
2021/08/02 09:07:37;;;;;;;6.35;2.95;;;;;;;26.76;48.00;93963.70;1712264;82;21080;-56
2021/08/02 09:10:07;;;;;;;7.35;3.02;;;;;;;26.86;47.73;93969.59;1699650;82;21624;-64
2021/08/02 09:12:34;;;;;;;6.85;3.15;;;;;;;26.89;47.89;93972.67;1689062;83;21994;-60
2021/08/02 09:15:05;;;;;;;5.15;3.12;;;;;;;26.93;47.75;93975.11;1681433;83;21484;-60
2021/08/02 09:17:38;;;;;;;8.10;3.35;;;;;;;26.98;47.18;93966.43;1686503;84;21597;-58
2021/08/02 09:20:20;;;;;;;9.98;3.42;;;;;;;27.09;46.50;93969.47;1681696;83;21174;-65
2021/08/02 09:22:47;;;;;;;4.53;3.90;;;;;;;27.14;46.04;93970.70;1700806;81;21132;-64
2021/08/02 09:25:16;;;;;;;5.62;3.98;;;;;;;27.32;47.44;93970.88;1695061;81;21223;-61
2021/08/02 09:27:44;;;;;;;11.97;3.80;;;;;;;27.50;46.62;93961.14;1696028;82;21423;-64
2021/08/02 09:30:23;;;;;;;7.42;3.27;;;;;;;27.55;45.54;93978.52;1695849;82;21021;-59
2021/08/02 09:32:54;;;;;;;10.70;3.42;;;;;;;27.48;45.20;93979.98;1691936;82;21240;-63
2021/08/02 09:35:39;;;;;;;5.08;3.20;;;;;;;27.46;45.26;93979.17;1662791;83;21117;-58
2021/08/02 09:38:11;;;;;;;5.62;2.37;;;;;;;27.50;45.25;93969.62;1666320;84;21087;-59
2021/08/02 09:40:45;;;;;;;5.80;3.20;;;;;;;27.60;45.62;93964.81;1668788;84;21054;-66
2021/08/02 09:43:19;;;;;;;14.07;3.30;;;;;;;27.72;45.66;93972.19;1633213;86;21204;-60
2021/08/02 09:45:57;;;;;;;4.78;2.62;;;;;;;27.78;45.48;93955.77;1683351;83;21206;-61
2021/08/02 09:48:41;;;;;;;9.48;5.53;;;;;;;27.80;43.77;93956.66;1687935;82;21060;-59
2021/08/02 09:51:15;;;;;;;8.85;3.05;;;;;;;27.81;45.38;93972.30;1690896;84;21133;-65
2021/08/02 09:53:45;;;;;;;7.03;3.10;;;;;;;27.95;44.96;93973.51;1683324;82;21046;-64
2021/08/02 09:56:16;;;;;;;4.30;2.95;;;;;;;28.01;44.65;93973.36;1699494;83;21075;-64
2021/08/02 09:58:45;;;;;;;5.42;2.42;;;;;;;28.11;44.64;93977.70;1689763;82;21628;-63
2021/08/02 10:01:15;;;;;;;2.62;2.42;;;;;;;28.09;42.94;93985.37;1700387;82;21005;-61
2021/08/02 10:03:44;;;;;;;10.07;3.00;;;;;;;28.11;43.67;93983.36;1702207;84;21690;-64
2021/08/02 10:06:14;;;;;;;4.62;2.90;;;;;;;28.04;43.30;93988.43;1712277;82;21014;-63
2021/08/02 10:08:43;;;;;;;7.10;2.70;;;;;;;27.93;42.04;93983.91;1699696;82;21948;-63
2021/08/02 10:11:09;;;;;;;7.87;2.65;;;;;;;27.86;43.13;93974.17;1703552;82;21030;-60
2021/08/02 10:13:43;;;;;;;13.40;3.98;;;;;;;27.82;43.84;93982.31;1702369;82;21518;-62
2021/08/02 10:16:19;;;;;;;6.25;3.00;;;;;;;27.80;42.68;93978.55;1685474;82;21349;-61
2021/08/02 10:18:50;;;;;;;5.85;3.12;;;;;;;27.85;43.08;93981.80;1722742;81;21521;-59
2021/08/02 10:21:17;;;;;;;3.05;2.50;;;;;;;27.87;42.75;93990.45;1687802;83;21489;-60
2021/08/02 10:23:44;;;;;;;4.85;3.17;;;;;;;28.01;43.33;94000.23;1686591;83;21030;-61
2021/08/02 10:26:21;;;;;;;5.70;2.50;;;;;;;28.07;42.23;93992.92;1700122;83;21034;-59
2021/08/02 10:28:57;;;;;;;6.85;2.80;;;;;;;28.27;41.88;93994.62;1693652;82;21815;-62
2021/08/02 10:31:26;;;;;;;4.08;2.72;;;;;;;28.61;41.73;94001.06;1697245;82;21592;-64
2021/08/02 10:33:55;;;;;;;5.75;2.70;;;;;;;28.91;41.49;94002.17;1682422;84;21205;-65
2021/08/02 10:36:23;;;;;;;4.53;2.67;;;;;;;29.15;40.00;93999.14;1684003;84;21111;-63
2021/08/02 10:38:53;;;;;;;14.35;2.90;;;;;;;29.37;40.28;93996.00;1689072;82;21048;-61
2021/08/02 10:41:29;;;;;;;3.60;2.67;;;;;;;29.52;38.87;93987.97;1682100;84;21120;-61
2021/08/02 10:43:57;;;;;;;8.38;2.70;;;;;;;29.41;39.00;93991.30;1692991;82;21068;-61
2021/08/02 10:46:28;;;;;;;7.85;3.50;;;;;;;29.13;39.25;93998.30;1701121;84;21331;-61
2021/08/02 10:49:09;;;;;;;4.05;2.75;;;;;;;29.07;39.71;94008.38;1699025;83;22246;-57
2021/08/02 10:51:48;;;;;;;6.75;2.50;;;;;;;28.94;39.89;94005.92;1702081;83;22207;-60
2021/08/02 10:54:17;;;;;;;5.05;2.27;;;;;;;29.11;38.70;94018.65;1692106;82;21064;-61
2021/08/02 10:56:48;;;;;;;4.50;2.25;;;;;;;28.81;38.50;94016.88;1703983;82;21057;-61
2021/08/02 10:59:13;;;;;;;5.30;2.15;;;;;;;28.99;38.54;94004.91;1704570;82;20975;-58
2021/08/02 11:01:52;;;;;;;5.87;3.12;;;;;;;29.20;37.90;94009.45;1679166;84;21097;-63
2021/08/02 11:04:21;;;;;;;7.87;2.85;;;;;;;29.57;37.74;94009.63;1684055;83;21105;-64
2021/08/02 11:06:54;;;;;;;13.10;3.33;;;;;;;29.82;38.08;94008.11;1689797;83;21175;-63
2021/08/02 11:09:29;;;;;;;8.20;2.55;;;;;;;30.09;36.18;94013.84;1694664;81;21092;-64
2021/08/02 11:12:11;;;;;;;4.60;2.30;;;;;;;29.97;36.87;94012.13;1697738;82;21109;-62
2021/08/02 11:14:50;;;;;;;5.70;2.47;;;;;;;30.09;36.62;94007.39;1688091;83;21111;-60
2021/08/02 11:17:21;;;;;;;6.25;2.50;;;;;;;30.28;35.50;94006.80;1685014;82;21492;-64
2021/08/02 11:20:01;;;;;;;3.87;2.10;;;;;;;30.57;35.35;94005.42;1683704;82;21532;-65
2021/08/02 11:22:28;;;;;;;9.03;2.47;;;;;;;30.65;33.75;94005.38;1686259;83;21136;-58
2021/08/02 11:25:01;;;;;;;9.50;2.92;;;;;;;30.30;35.32;94011.89;1693354;82;21025;-56
2021/08/02 11:27:27;;;;;;;7.40;2.67;;;;;;;30.25;35.81;94010.06;1695939;83;20962;-64
2021/08/02 11:29:55;;;;;;;4.33;2.22;;;;;;;29.83;36.40;94010.28;1683199;82;21069;-61
2021/08/02 11:32:22;;;;;;;5.15;2.25;;;;;;;29.66;36.25;94011.09;1696978;83;21062;-70
2021/08/02 11:35:01;;;;;;;5.67;2.42;;;;;;;29.82;36.27;94022.94;1682859;83;21550;-62
2021/08/02 11:37:27;;;;;;;5.65;2.12;;;;;;;29.92;36.25;94026.66;1689273;83;21025;-64
2021/08/02 11:40:02;;;;;;;3.05;2.47;;;;;;;30.18;36.19;94015.20;1694986;82;21056;-63
2021/08/02 11:42:30;;;;;;;5.55;2.35;;;;;;;30.56;35.75;94016.70;1679150;82;21355;-60
2021/08/02 11:44:59;;;;;;;6.03;2.70;;;;;;;30.87;35.25;94024.77;1685539;83;21097;-64
2021/08/02 11:47:28;;;;;;;3.70;2.10;;;;;;;30.98;33.64;94031.26;1704425;83;21068;-59
2021/08/02 11:49:56;;;;;;;7.75;2.42;;;;;;;30.55;34.28;94025.91;1689619;82;21055;-63